Time;durP1;ratioP1;P1;durP2;ratioP2;P2;SDS_P1;SDS_P2;PMS_P1;PMS_P2;Temp;Humidity;BMP_temperature;BMP_pressure;BME280_temperature;BME280_humidity;BME280_pressure;Samples;Min_cycle;Max_cycle;Signal;HPM_P1;HPM_P2
2021/10/05 00:00:56;;;;;;;409.97;393.87;;;8.60;99.90;;;;;;6255122;23;20411;-90
2021/10/05 00:03:23;;;;;;;406.73;391.00;;;8.50;99.90;;;;;;6256103;23;20400;-91
2021/10/05 00:05:52;;;;;;;408.10;392.00;;;8.60;99.90;;;;;;6255963;23;20417;-90
2021/10/05 00:08:19;;;;;;;429.27;412.27;;;8.60;99.90;;;;;;6245775;23;20461;-91
2021/10/05 00:10:46;;;;;;;421.90;405.13;;;8.60;99.90;;;;;;6255896;23;20950;-90
2021/10/05 00:13:15;;;;;;;428.30;411.00;;;8.60;99.90;;;;;;6246021;23;20450;-87
2021/10/05 00:15:46;;;;;;;429.57;412.30;;;8.60;99.90;;;;;;6255060;23;20403;-90
2021/10/05 00:18:13;;;;;;;401.53;385.77;;;8.60;99.90;;;;;;6256132;23;20872;-88
2021/10/05 00:20:40;;;;;;;423.67;406.27;;;8.50;99.90;;;;;;6245766;23;21053;-89
2021/10/05 00:23:07;;;;;;;426.70;409.40;;;8.50;99.90;;;;;;6243939;23;20400;-91
2021/10/05 00:25:34;;;;;;;443.40;425.67;;;8.50;99.90;;;;;;6245927;23;20434;-87
2021/10/05 00:28:01;;;;;;;446.77;428.73;;;8.50;99.90;;;;;;6245761;23;20438;-88
2021/10/05 00:30:30;;;;;;;467.17;448.27;;;8.50;99.90;;;;;;6254976;23;20489;-89
2021/10/05 00:32:57;;;;;;;469.03;449.93;;;8.60;99.90;;;;;;6245829;23;20412;-88
2021/10/05 00:35:24;;;;;;;455.03;436.60;;;8.60;99.90;;;;;;6256206;23;20503;-87
2021/10/05 00:37:52;;;;;;;450.03;431.73;;;8.60;99.90;;;;;;6256160;23;20491;-87
2021/10/05 00:40:19;;;;;;;452.10;433.80;;;8.60;99.90;;;;;;6255694;23;20407;-86
2021/10/05 00:42:47;;;;;;;449.97;432.07;;;8.60;99.90;;;;;;6245646;23;20435;-88
2021/10/05 00:45:17;;;;;;;471.00;451.70;;;8.70;99.90;;;;;;6254920;23;20418;-91
2021/10/05 00:47:48;;;;;;;457.83;439.23;;;8.70;99.90;;;;;;6245605;23;20399;-89
2021/10/05 00:50:16;;;;;;;470.40;451.00;;;8.70;99.90;;;;;;6244840;23;20465;-88
2021/10/05 00:52:44;;;;;;;455.20;436.57;;;8.80;99.90;;;;;;6245919;23;20450;-88
2021/10/05 00:55:11;;;;;;;456.27;437.77;;;8.80;99.90;;;;;;6255828;23;20825;-90
2021/10/05 00:57:39;;;;;;;454.37;436.30;;;8.80;99.90;;;;;;6245917;23;20797;-90
2021/10/05 01:00:10;;;;;;;445.07;427.27;;;8.70;99.90;;;;;;6244277;23;20485;-91
2021/10/05 01:02:42;;;;;;;460.70;442.13;;;8.70;99.90;;;;;;6245171;23;20494;-88
2021/10/05 01:05:18;;;;;;;466.40;447.17;;;8.70;99.90;;;;;;6255637;23;20407;-91
2021/10/05 01:07:49;;;;;;;469.30;450.50;;;8.80;99.90;;;;;;6256103;23;20457;-88
2021/10/05 01:10:18;;;;;;;468.23;449.30;;;8.80;99.90;;;;;;6255671;23;20404;-91
2021/10/05 01:12:47;;;;;;;453.27;435.27;;;8.80;99.90;;;;;;6245886;23;20478;-89
2021/10/05 01:15:15;;;;;;;463.30;444.40;;;8.80;99.90;;;;;;6244312;23;20818;-89
2021/10/05 01:17:42;;;;;;;467.90;449.20;;;8.80;99.90;;;;;;6247183;23;20883;-90
2021/10/05 01:20:14;;;;;;;479.40;459.90;;;8.80;99.90;;;;;;6247576;23;20443;-90
2021/10/05 01:22:42;;;;;;;468.57;449.40;;;8.90;99.90;;;;;;6258062;23;20737;-90
2021/10/05 01:25:13;;;;;;;449.87;431.87;;;8.80;99.90;;;;;;6257877;23;20490;-88
2021/10/05 01:27:47;;;;;;;446.00;427.93;;;8.90;99.90;;;;;;6247751;23;20406;-86
2021/10/05 01:30:15;;;;;;;446.63;428.73;;;8.80;99.90;;;;;;6256180;23;20434;-88
2021/10/05 01:32:43;;;;;;;424.20;407.40;;;8.90;99.90;;;;;;6258003;23;20459;-88
2021/10/05 01:35:18;;;;;;;430.37;413.57;;;8.80;99.90;;;;;;6257522;23;20985;-85
2021/10/05 01:37:47;;;;;;;427.90;410.77;;;8.80;99.90;;;;;;6257859;23;20425;-89
2021/10/05 01:40:14;;;;;;;456.80;438.50;;;8.90;99.90;;;;;;6257501;23;20417;-88
2021/10/05 01:42:41;;;;;;;447.20;429.60;;;8.80;99.90;;;;;;6247560;23;20431;-91
2021/10/05 01:45:09;;;;;;;422.27;405.57;;;8.80;99.90;;;;;;6256150;23;20477;-89
2021/10/05 01:47:38;;;;;;;424.03;407.47;;;8.90;99.90;;;;;;6257595;23;20414;-90
2021/10/05 01:50:06;;;;;;;419.47;403.10;;;8.80;99.90;;;;;;6257364;23;20411;-90
2021/10/05 01:52:33;;;;;;;416.50;400.60;;;8.80;99.90;;;;;;6257713;23;20412;-88
2021/10/05 01:55:01;;;;;;;414.63;398.50;;;8.80;99.90;;;;;;6257342;23;20446;-89
2021/10/05 01:57:28;;;;;;;418.30;401.67;;;8.70;99.90;;;;;;6247095;23;20396;-89
2021/10/05 01:59:55;;;;;;;430.97;413.77;;;8.70;99.90;;;;;;6246311;23;20404;-91
2021/10/05 02:02:23;;;;;;;436.20;418.67;;;8.70;99.90;;;;;;6257531;23;20716;-89
2021/10/05 02:04:56;;;;;;;447.20;429.17;;;8.80;99.90;;;;;;6257499;23;20738;-88
2021/10/05 02:07:22;;;;;;;461.93;443.17;;;8.60;99.90;;;;;;6247214;23;20407;-90
2021/10/05 02:09:54;;;;;;;449.77;431.83;;;8.60;99.90;;;;;;6247351;23;20435;-89
2021/10/05 02:12:23;;;;;;;448.93;431.07;;;8.50;99.90;;;;;;6257113;23;20506;-86
2021/10/05 02:14:54;;;;;;;457.53;438.97;;;8.60;99.90;;;;;;6256219;23;20459;-87
2021/10/05 02:17:21;;;;;;;475.10;455.40;;;8.50;99.90;;;;;;6247316;23;20451;-88
2021/10/05 02:19:48;;;;;;;487.50;467.43;;;8.60;99.90;;;;;;6257240;23;20498;-89
2021/10/05 02:22:15;;;;;;;496.50;475.97;;;8.50;99.90;;;;;;6247107;23;20490;-86
2021/10/05 02:24:43;;;;;;;514.97;493.17;;;8.50;99.90;;;;;;6257581;23;20736;-90
2021/10/05 02:27:15;;;;;;;520.50;498.37;;;8.60;99.90;;;;;;6257069;23;20811;-88
2021/10/05 02:29:44;;;;;;;528.10;505.50;;;8.50;99.90;;;;;;6245063;23;21009;-90
2021/10/05 02:32:12;;;;;;;538.27;514.87;;;8.70;99.90;;;;;;6247383;23;20403;-90
2021/10/05 02:34:40;;;;;;;533.87;510.80;;;8.70;99.90;;;;;;6257119;23;20427;-89
2021/10/05 02:37:07;;;;;;;528.17;505.17;;;8.70;99.90;;;;;;6246906;23;20404;-90
2021/10/05 02:39:35;;;;;;;532.40;509.43;;;8.70;99.90;;;;;;6256907;23;20435;-92
2021/10/05 02:42:05;;;;;;;528.30;505.23;;;8.70;99.90;;;;;;6257277;23;20423;-85
2021/10/05 02:44:33;;;;;;;546.07;521.57;;;8.80;99.90;;;;;;6245876;23;20450;-91
2021/10/05 02:47:04;;;;;;;551.40;526.93;;;8.80;99.90;;;;;;6256793;23;20407;-91
2021/10/05 02:49:31;;;;;;;563.90;539.10;;;8.80;99.90;;;;;;6246605;23;20443;-86
2021/10/05 02:51:59;;;;;;;564.67;539.67;;;8.90;99.90;;;;;;6246963;23;20399;-89
2021/10/05 02:54:29;;;;;;;553.03;528.73;;;8.90;99.90;;;;;;6257003;23;20430;-91
2021/10/05 02:56:59;;;;;;;560.93;536.30;;;8.90;99.90;;;;;;6246766;23;20465;-89
2021/10/05 02:59:28;;;;;;;550.63;527.00;;;8.90;99.90;;;;;;6255524;23;20429;-90
2021/10/05 03:01:55;;;;;;;536.07;512.97;;;8.90;99.90;;;;;;6246750;23;20400;-90
2021/10/05 03:04:29;;;;;;;549.93;525.77;;;8.90;99.90;;;;;;6257076;23;20419;-85
2021/10/05 03:06:58;;;;;;;537.90;514.37;;;8.80;99.90;;;;;;6257071;23;20403;-86
2021/10/05 03:09:25;;;;;;;521.23;499.00;;;8.80;99.90;;;;;;6256543;23;20414;-88
2021/10/05 03:11:56;;;;;;;531.27;507.87;;;8.80;99.90;;;;;;6256898;23;20764;-87
2021/10/05 03:14:25;;;;;;;564.70;539.77;;;8.70;99.90;;;;;;6178856;23;20439;-91
2021/10/05 03:17:05;;;;;;;555.50;531.30;;;8.80;99.90;;;;;;6246160;23;20450;-90
2021/10/05 03:19:35;;;;;;;561.67;537.07;;;8.80;99.90;;;;;;6256554;23;20406;-90
2021/10/05 03:22:02;;;;;;;534.67;511.50;;;8.90;99.90;;;;;;6256707;23;20411;-88
2021/10/05 03:24:37;;;;;;;533.40;510.40;;;9.00;99.90;;;;;;6256756;23;20891;-91
2021/10/05 03:27:06;;;;;;;538.33;515.03;;;8.90;99.90;;;;;;6256799;23;20399;-90
2021/10/05 03:29:38;;;;;;;558.93;534.37;;;8.90;99.90;;;;;;6254911;23;20435;-90
2021/10/05 03:32:07;;;;;;;539.07;515.70;;;9.00;99.90;;;;;;6256616;23;20431;-91
2021/10/05 03:34:35;;;;;;;528.80;505.90;;;9.10;99.90;;;;;;6256366;23;20431;-90
2021/10/05 03:37:04;;;;;;;504.10;482.90;;;9.10;99.90;;;;;;6256356;23;20868;-89
2021/10/05 03:39:33;;;;;;;505.27;484.17;;;9.00;99.90;;;;;;6256395;22;20414;-90
2021/10/05 03:42:06;;;;;;;486.10;466.20;;;8.90;99.90;;;;;;6257713;23;20418;-89
2021/10/05 03:44:32;;;;;;;485.23;465.43;;;8.90;99.90;;;;;;6256401;23;20506;-77
2021/10/05 03:47:01;;;;;;;476.53;457.13;;;8.90;99.90;;;;;;6247169;23;20435;-88
2021/10/05 03:49:31;;;;;;;486.27;465.87;;;8.80;99.90;;;;;;6256824;23;20408;-86
2021/10/05 03:52:01;;;;;;;492.47;471.77;;;8.80;99.90;;;;;;6256418;23;20421;-88
2021/10/05 03:54:28;;;;;;;501.20;479.97;;;8.80;99.90;;;;;;6256260;23;20465;-87
2021/10/05 03:56:55;;;;;;;523.20;501.03;;;8.90;99.90;;;;;;6256306;23;20934;-87
2021/10/05 03:59:22;;;;;;;522.07;499.77;;;8.80;99.90;;;;;;6245551;23;20768;-87
2021/10/05 04:05:01;;;;;;;511.10;489.27;;;8.90;99.90;;;;;;6176857;23;20411;-88
2021/10/05 04:07:31;;;;;;;532.27;508.67;;;8.80;99.90;;;;;;6256619;23;20437;-87
2021/10/05 04:09:58;;;;;;;548.17;523.97;;;8.70;99.90;;;;;;6256286;23;20415;-89
2021/10/05 04:12:27;;;;;;;561.87;536.50;;;8.80;99.90;;;;;;6256576;23;20414;-87
2021/10/05 04:14:56;;;;;;;556.37;531.27;;;8.90;99.90;;;;;;6254341;23;20792;-87
2021/10/05 04:17:38;;;;;;;550.00;525.17;;;9.10;99.90;;;;;;6245750;23;20895;-83
2021/10/05 04:20:07;;;;;;;536.30;512.50;;;9.10;99.90;;;;;;6249950;23;20501;-80
2021/10/05 04:22:35;;;;;;;513.60;491.60;;;9.30;99.90;;;;;;6245898;23;20404;-88
2021/10/05 04:25:05;;;;;;;504.90;482.90;;;9.30;99.90;;;;;;6245897;23;20729;-79
2021/10/05 04:27:36;;;;;;;482.50;462.53;;;9.30;99.90;;;;;;6246185;23;20403;-85
2021/10/05 04:30:14;;;;;;;475.10;455.30;;;9.20;99.90;;;;;;6254815;23;20485;-86
2021/10/05 04:32:45;;;;;;;460.23;441.47;;;9.10;99.90;;;;;;6256653;23;20949;-86
2021/10/05 04:35:15;;;;;;;460.73;442.13;;;9.20;99.90;;;;;;6245919;23;20474;-87
2021/10/05 04:37:48;;;;;;;454.80;436.03;;;9.20;99.90;;;;;;6255841;23;20922;-86
2021/10/05 04:40:18;;;;;;;475.30;454.87;;;9.10;99.90;;;;;;6256356;23;20966;-87
2021/10/05 04:42:44;;;;;;;484.50;463.70;;;9.00;99.90;;;;;;6246109;23;20404;-79
2021/10/05 04:45:11;;;;;;;470.97;451.57;;;9.10;99.90;;;;;;6255483;23;20458;-91
2021/10/05 04:47:52;;;;;;;464.53;445.47;;;9.00;99.90;;;;;;6256228;23;20465;-85
2021/10/05 04:50:26;;;;;;;487.50;467.10;;;8.90;99.90;;;;;;6256043;23;20403;-82
2021/10/05 04:52:55;;;;;;;488.67;468.17;;;8.90;99.90;;;;;;6245938;23;20398;-88
2021/10/05 04:55:22;;;;;;;505.63;484.13;;;8.80;99.90;;;;;;6255861;23;20474;-87
2021/10/05 04:57:51;;;;;;;495.13;473.57;;;8.80;99.90;;;;;;6245863;23;20422;-87
2021/10/05 05:00:19;;;;;;;503.93;482.17;;;8.80;99.90;;;;;;6254725;23;20411;-78
2021/10/05 05:02:47;;;;;;;514.87;492.77;;;8.70;99.90;;;;;;6245706;23;20478;-85
2021/10/05 05:05:14;;;;;;;520.30;497.63;;;8.70;99.90;;;;;;6245782;23;20724;-87
2021/10/05 05:07:41;;;;;;;544.80;520.00;;;8.50;99.90;;;;;;6245596;23;20486;-88
2021/10/05 05:10:16;;;;;;;534.17;510.33;;;8.50;99.90;;;;;;6257394;23;20411;-88
2021/10/05 05:12:49;;;;;;;552.80;528.03;;;8.60;99.90;;;;;;6245793;23;20402;-85
2021/10/05 05:15:24;;;;;;;558.63;533.17;;;8.60;99.90;;;;;;6254450;23;20427;-88
2021/10/05 05:20:50;;;;;;;572.90;546.80;;;8.70;99.90;;;;;;6252956;23;20771;-87
2021/10/05 05:23:25;;;;;;;581.40;550.87;;;8.70;99.90;;;;;;6255767;23;20441;-88
2021/10/05 05:25:57;;;;;;;576.17;549.80;;;8.60;99.90;;;;;;6255735;23;20814;-88
2021/10/05 05:28:31;;;;;;;592.20;564.60;;;8.70;99.90;;;;;;6245545;23;20988;-90
2021/10/05 05:31:57;;;;;;;598.20;570.17;;;8.60;99.90;;;;;;6254274;23;20407;-87
2021/10/05 05:37:21;;;;;;;623.83;593.87;;;8.60;99.90;;;;;;6198822;23;20794;-88
2021/10/05 05:40:28;;;;;;;642.70;611.20;;;8.70;99.90;;;;;;6255401;23;20411;-87
2021/10/05 05:43:01;;;;;;;655.30;623.10;;;8.90;99.90;;;;;;6245585;23;20453;-89
2021/10/05 05:45:42;;;;;;;659.40;627.20;;;9.00;99.90;;;;;;6254567;23;20411;-91
2021/10/05 05:48:14;;;;;;;639.67;608.17;;;9.10;99.90;;;;;;6255737;23;20885;-90
2021/10/05 05:50:45;;;;;;;622.63;592.33;;;9.10;99.90;;;;;;6245735;23;20937;-90
2021/10/05 05:53:15;;;;;;;635.47;604.20;;;9.10;99.90;;;;;;6257609;23;20469;-89
2021/10/05 05:56:10;;;;;;;621.17;591.07;;;9.20;99.90;;;;;;6255621;23;20798;-85
2021/10/05 05:58:39;;;;;;;633.57;602.33;;;9.30;99.90;;;;;;6240881;23;20502;-86
2021/10/05 06:01:22;;;;;;;602.27;573.70;;;9.30;99.90;;;;;;6245908;23;20395;-88
2021/10/05 06:03:52;;;;;;;593.57;565.47;;;9.30;99.90;;;;;;6256732;23;20890;-86
2021/10/05 06:06:21;;;;;;;581.47;553.97;;;9.30;99.90;;;;;;6247728;23;20474;-89
2021/10/05 06:08:54;;;;;;;567.10;540.97;;;9.20;99.90;;;;;;6258007;23;20403;-87
2021/10/05 06:11:21;;;;;;;573.37;547.37;;;9.50;99.90;;;;;;6258081;23;20483;-90
2021/10/05 06:14:19;;;;;;;;;;;;;;;;;;;;;
2021/10/05 06:17:01;;;;;;;;;;;;;;;;;;;;;
2021/10/05 06:19:34;;;;;;;537.43;513.63;;;9.50;99.90;;;;;;6257077;23;20411;-85
2021/10/05 06:22:01;;;;;;;513.27;491.30;;;9.60;99.90;;;;;;6257067;23;20418;-85
2021/10/05 06:25:02;;;;;;;492.87;471.97;;;9.70;99.90;;;;;;6256790;23;20411;-84
2021/10/05 06:27:44;;;;;;;472.67;452.77;;;9.70;99.90;;;;;;6246844;23;20408;-84
2021/10/05 06:30:28;;;;;;;454.33;435.67;;;9.80;99.90;;;;;;6255258;23;20435;-84
2021/10/05 06:32:55;;;;;;;435.53;417.30;;;9.90;99.90;;;;;;6257290;23;20713;-85
2021/10/05 06:35:24;;;;;;;413.83;397.07;;;9.80;99.90;;;;;;6256847;23;20430;-85
2021/10/05 06:37:56;;;;;;;413.03;396.10;;;10.10;99.90;;;;;;6257163;23;20461;-85
2021/10/05 06:40:39;;;;;;;396.47;380.47;;;9.90;99.90;;;;;;6257170;23;20502;-83
2021/10/05 06:43:06;;;;;;;391.03;375.43;;;9.90;99.90;;;;;;6257135;23;20408;-85
2021/10/05 06:45:43;;;;;;;389.80;373.70;;;9.90;99.90;;;;;;6255924;23;20408;-83
2021/10/05 06:48:21;;;;;;;377.00;361.90;;;9.90;99.90;;;;;;6257007;23;20502;-83
2021/10/05 06:58:24;;;;;;;367.97;353.07;;;10.10;99.90;;;;;;5939940;23;20406;-84
2021/10/05 07:01:31;;;;;;;;;;;;;;;;;;;;;
2021/10/05 07:04:01;;;;;;;348.60;334.70;;;10.30;99.90;;;;;;6202489;23;20470;-85
2021/10/05 07:07:16;;;;;;;337.80;324.50;;;10.30;99.90;;;;;;6247114;23;20407;-89
2021/10/05 07:12:19;;;;;;;305.83;293.83;;;10.50;99.90;;;;;;6197387;23;20510;-86
2021/10/05 07:56:43;;;;;;;66.73;63.83;;;11.50;99.90;;;;;;5943724;23;20517;-83
2021/10/05 07:59:11;;;;;;;73.33;69.87;;;11.40;99.90;;;;;;6126462;23;20465;-85
2021/10/05 08:02:00;;;;;;;83.20;79.67;;;11.60;99.90;;;;;;6225681;23;20918;-85
2021/10/05 08:08:41;;;;;;;;;;;;;;;;;;;;;
2021/10/05 08:11:51;;;;;;;52.90;49.97;;;12.10;99.90;;;;;;5989066;24;20446;-86
2021/10/05 08:14:19;;;;;;;37.60;35.13;;;12.20;99.90;;;;;;6021706;23;20422;-78
2021/10/05 08:17:01;;;;;;;33.63;31.73;;;12.20;99.90;;;;;;6099861;23;20477;-85
2021/10/05 08:19:36;;;;;;;28.70;27.07;;;12.40;99.90;;;;;;6181046;23;20415;-86
2021/10/05 08:22:06;;;;;;;27.13;25.47;;;12.40;99.90;;;;;;6225358;23;20431;-86
2021/10/05 08:24:35;;;;;;;25.00;23.10;;;12.50;99.90;;;;;;6215686;23;20402;-85
2021/10/05 08:27:05;;;;;;;20.00;18.60;;;12.60;99.90;;;;;;6215147;23;20455;-86
2021/10/05 08:29:37;;;;;;;16.87;15.67;;;12.80;99.90;;;;;;6224339;23;20404;-85
2021/10/05 08:32:07;;;;;;;12.53;11.63;;;13.00;99.90;;;;;;6215692;23;20435;-86
2021/10/05 08:34:34;;;;;;;13.93;12.80;;;13.00;99.90;;;;;;6225098;23;20459;-87
2021/10/05 08:37:03;;;;;;;10.90;9.90;;;13.10;99.90;;;;;;6215236;23;20432;-85
2021/10/05 08:39:31;;;;;;;18.97;10.80;;;13.20;99.90;;;;;;6225403;23;20412;-85
2021/10/05 08:42:00;;;;;;;11.40;8.03;;;13.40;99.90;;;;;;6214752;23;20396;-85
2021/10/05 08:44:28;;;;;;;7.40;6.70;;;13.60;99.90;;;;;;6223823;23;20712;-82
2021/10/05 08:46:58;;;;;;;8.10;5.60;;;13.80;99.90;;;;;;6215416;23;20436;-82
2021/10/05 08:49:25;;;;;;;8.10;6.60;;;13.90;99.20;;;;;;6224690;23;20415;-81
2021/10/05 08:51:53;;;;;;;11.40;4.90;;;14.00;99.90;;;;;;6225590;23;20404;-85
2021/10/05 08:54:21;;;;;;;6.37;4.80;;;14.10;99.30;;;;;;6224871;23;20416;-83
2021/10/05 09:03:39;;;;;;;4.80;3.30;;;15.10;92.30;;;;;;6222734;23;20431;-84
2021/10/05 09:06:16;;;;;;;4.33;3.03;;;15.70;83.10;;;;;;6215014;23;20427;-86
2021/10/05 09:08:48;;;;;;;10.73;3.63;;;16.20;73.20;;;;;;6215105;23;20405;-85
2021/10/05 09:11:18;;;;;;;6.10;2.87;;;16.40;66.80;;;;;;6215304;23;20782;-83
2021/10/05 09:13:52;;;;;;;6.40;2.30;;;16.20;62.90;;;;;;6223500;23;20435;-82
2021/10/05 09:16:21;;;;;;;3.93;2.03;;;16.10;61.90;;;;;;6224368;23;20435;-83
2021/10/05 09:18:58;;;;;;;4.20;2.63;;;16.00;60.40;;;;;;6215388;23;20432;-83
2021/10/05 09:21:27;;;;;;;5.10;2.10;;;16.30;62.50;;;;;;6225981;23;20401;-84
2021/10/05 09:24:38;;;;;;;;;;;;;;;;;;;;;
2021/10/05 09:27:37;;;;;;;5.97;1.87;;;16.20;59.70;;;;;;6208354;23;20445;-84
2021/10/05 09:30:32;;;;;;;6.73;2.90;;;16.90;58.00;;;;;;6223545;23;20442;-84
2021/10/05 09:36:09;;;;;;;6.37;2.37;;;17.70;50.10;;;;;;6181471;23;20417;-86
2021/10/05 09:38:44;;;;;;;5.23;2.50;;;17.80;49.50;;;;;;6215677;23;20446;-86
2021/10/05 09:41:16;;;;;;;5.00;1.90;;;18.10;47.60;;;;;;6216466;23;20915;-87
2021/10/05 09:44:11;;;;;;;4.97;2.00;;;18.00;42.80;;;;;;6215908;23;20459;-85
2021/10/05 09:46:50;;;;;;;7.13;2.10;;;17.90;43.40;;;;;;6226682;23;20436;-87
2021/10/05 09:49:24;;;;;;;5.80;2.10;;;18.40;42.90;;;;;;6227120;23;20423;-90
2021/10/05 09:52:11;;;;;;;;;;;;;;;;;;;;;
2021/10/05 09:54:40;;;;;;;6.40;2.10;;;18.40;39.40;;;;;;6226782;23;20473;-87
2021/10/05 09:57:25;;;;;;;4.83;1.80;;;18.50;40.80;;;;;;6226874;23;20417;-85
2021/10/05 09:59:54;;;;;;;5.33;2.20;;;18.80;37.10;;;;;;6225683;23;20420;-88
2021/10/05 10:02:27;;;;;;;4.63;2.00;;;19.10;37.20;;;;;;6226375;23;20427;-88
2021/10/05 10:04:56;;;;;;;6.10;1.80;;;19.30;34.30;;;;;;6226758;23;20452;-83
2021/10/05 10:07:57;;;;;;;5.40;1.70;;;19.20;30.60;;;;;;6226858;23;20489;-85
2021/10/05 10:10:33;;;;;;;7.30;2.63;;;19.30;32.20;;;;;;6216624;23;20958;-85
2021/10/05 10:13:09;;;;;;;4.10;1.63;;;19.30;31.50;;;;;;6226989;23;20422;-88
2021/10/05 10:15:40;;;;;;;4.70;2.17;;;19.10;29.30;;;;;;6215095;23;20421;-88
2021/10/05 10:18:09;;;;;;;4.87;1.70;;;19.30;30.10;;;;;;6216936;23;20403;-88
2021/10/05 10:20:41;;;;;;;6.80;1.60;;;19.40;30.00;;;;;;6227067;23;20449;-87
2021/10/05 10:23:31;;;;;;;5.47;2.03;;;19.80;29.80;;;;;;6226543;23;20813;-90
2021/10/05 10:26:33;;;;;;;;;;;;;;;;;;;;;
2021/10/05 10:29:06;;;;;;;4.77;1.70;;;20.00;27.90;;;;;;6045962;23;20535;-89
2021/10/05 10:32:00;;;;;;;;;;;;;;;;;;;;;
2021/10/05 10:35:03;;;;;;;4.63;1.80;;;20.40;27.30;;;;;;6216144;23;20411;-88
2021/10/05 10:40:54;;;;;;;4.83;2.00;;;20.40;26.80;;;;;;6174968;23;20817;-87
2021/10/05 10:43:24;;;;;;;4.77;2.07;;;20.50;26.00;;;;;;6226389;23;20411;-80
2021/10/05 10:45:54;;;;;;;5.27;1.50;;;20.40;25.60;;;;;;6225233;23;20415;-81
2021/10/05 10:48:53;;;;;;;5.90;2.43;;;20.50;26.60;;;;;;6226451;23;20408;-80
2021/10/05 10:51:20;;;;;;;4.83;1.90;;;20.40;22.90;;;;;;6226768;23;20404;-82
2021/10/05 10:53:48;;;;;;;5.27;1.70;;;20.80;23.90;;;;;;6226816;23;20407;-82
2021/10/05 10:56:31;;;;;;;5.20;1.70;;;21.00;23.90;;;;;;6226498;23;20398;-84
2021/10/05 10:59:02;;;;;;;4.20;1.40;;;21.10;23.10;;;;;;6215162;23;20432;-79
2021/10/05 11:01:42;;;;;;;5.73;1.77;;;21.40;20.70;;;;;;6216535;23;20911;-80
2021/10/05 11:04:11;;;;;;;4.50;2.00;;;21.40;20.70;;;;;;6216505;23;20392;-83
2021/10/05 11:06:39;;;;;;;6.80;1.57;;;21.30;22.10;;;;;;6216587;23;20427;-83
2021/10/05 11:09:16;;;;;;;6.00;2.60;;;21.20;20.60;;;;;;6216202;23;20396;-83
2021/10/05 11:12:15;;;;;;;10.23;1.77;;;21.30;19.00;;;;;;6226436;23;20418;-87
2021/10/05 11:14:44;;;;;;;5.00;1.53;;;21.50;18.80;;;;;;6133867;23;20419;-77
2021/10/05 11:17:45;;;;;;;8.20;2.30;;;21.20;18.80;;;;;;6215612;23;20498;-85
2021/10/05 11:30:21;;;;;;;5.43;1.90;;;20.40;20.10;;;;;;5964285;23;20925;-88
2021/10/05 12:27:52;;;;;;;4.60;1.53;;;18.80;27.50;;;;;;5798790;24;20460;-86
2021/10/05 12:30:32;;;;;;;;;;;;;;;;;;;;;
2021/10/05 12:33:28;;;;;;;3.80;1.20;;;18.80;28.50;;;;;;6017990;23;20803;-85
2021/10/05 12:36:07;;;;;;;;;;;;;;;;;;;;;
2021/10/05 12:38:36;;;;;;;6.33;1.70;;;18.80;30.00;;;;;;6133388;23;20475;-85
2021/10/05 12:44:19;;;;;;;6.00;2.30;;;19.10;27.90;;;;;;6188789;23;20528;-87
2021/10/05 12:49:55;;;;;;;4.37;1.43;;;19.20;27.10;;;;;;6165494;23;20422;-85
2021/10/05 12:55:36;;;;;;;6.50;2.00;;;19.60;27.40;;;;;;6180679;23;20800;-85
2021/10/05 13:04:04;;;;;;;3.90;1.57;;;19.00;27.10;;;;;;6193015;23;20416;-85
2021/10/05 13:06:37;;;;;;;6.43;1.77;;;18.80;26.40;;;;;;6184424;23;20484;-84
2021/10/05 13:09:11;;;;;;;8.80;1.60;;;18.70;27.10;;;;;;6185342;23;20399;-86
2021/10/05 13:11:40;;;;;;;3.73;1.37;;;18.30;30.40;;;;;;6185450;23;20407;-84
2021/10/05 13:14:09;;;;;;;7.70;1.90;;;18.10;32.80;;;;;;6195994;23;20416;-84
2021/10/05 13:16:46;;;;;;;5.00;1.30;;;17.90;35.00;;;;;;6196967;23;20452;-86
2021/10/05 13:19:17;;;;;;;5.80;1.53;;;17.60;36.60;;;;;;6187379;23;20408;-84
2021/10/05 13:21:44;;;;;;;5.77;1.47;;;17.30;39.80;;;;;;6197183;23;20409;-86
2021/10/05 13:24:13;;;;;;;6.13;1.67;;;17.10;42.30;;;;;;6187575;23;20414;-83
2021/10/05 13:26:42;;;;;;;6.40;1.43;;;16.80;44.80;;;;;;6197243;23;20412;-84
2021/10/05 13:29:12;;;;;;;6.13;1.63;;;16.50;50.90;;;;;;6186148;23;20438;-84
2021/10/05 13:31:43;;;;;;;4.53;1.40;;;16.30;60.00;;;;;;6186845;23;20959;-84
2021/10/05 13:34:16;;;;;;;9.40;2.27;;;16.10;64.00;;;;;;6196951;23;20421;-87
2021/10/05 13:36:45;;;;;;;6.63;3.00;;;15.80;74.30;;;;;;6196793;23;20411;-88
2021/10/05 13:39:20;;;;;;;6.03;3.13;;;15.50;76.50;;;;;;6197339;23;20748;-88
2021/10/05 13:42:12;;;;;;;;;;;;;;;;;;;;;
2021/10/05 13:48:42;;;;;;;4.83;2.87;;;15.30;88.00;;;;;;5994200;23;20175;-92
2021/10/05 14:07:59;;;;;;;;;;;;;;;;;;;;;
2021/10/05 14:11:31;;;;;;;;;;;;;;;;;;;;;
2021/10/05 14:17:34;;;;;;;7.47;5.47;;;14.80;99.90;;;;;;5965309;23;20460;-86
2021/10/05 14:20:28;;;;;;;;;;;;;;;;;;;;;
2021/10/05 14:23:03;;;;;;;4.97;4.47;;;14.70;99.90;;;;;;6038390;23;20409;-87
2021/10/05 14:25:30;;;;;;;6.57;4.43;;;14.70;99.60;;;;;;6156483;23;20428;-88
2021/10/05 14:28:14;;;;;;;6.63;5.90;;;14.80;99.90;;;;;;6167152;23;20406;-87
2021/10/05 14:31:01;;;;;;;;;;;;;;;;;;;;;
2021/10/05 14:34:09;;;;;;;;;;;;;;;;;;;;;
2021/10/05 14:49:58;;;;;;;22.17;20.77;;;14.50;99.90;;;;;;5924181;23;20478;-88
2021/10/05 14:52:46;;;;;;;;;;;;;;;;;;;;;
2021/10/05 14:58:31;;;;;;;22.10;20.90;;;14.40;99.90;;;;;;6092171;23;20443;-90
2021/10/05 15:01:29;;;;;;;31.73;30.33;;;14.30;99.90;;;;;;6086999;23;20995;-87
2021/10/05 15:07:15;;;;;;;51.23;49.00;;;14.30;99.90;;;;;;6161999;23;20409;-88
2021/10/05 15:10:16;;;;;;;51.53;49.03;;;14.30;99.90;;;;;;6196253;23;20777;-86
2021/10/05 15:12:49;;;;;;;25.07;23.87;;;14.30;99.90;;;;;;6169879;23;20413;-87
2021/10/05 15:15:30;;;;;;;;;;;;;;;;;;;;;
2021/10/05 15:21:48;;;;;;;;;;;;;;;;;;;;;
2021/10/05 15:24:25;;;;;;;91.10;87.37;;;14.40;99.90;;;;;;6162460;23;20436;-88
2021/10/05 15:33:49;;;;;;;102.40;98.73;;;14.40;99.90;;;;;;6092343;23;20420;-86
2021/10/05 15:36:23;;;;;;;81.37;78.37;;;14.50;99.90;;;;;;6008613;23;20516;-87
2021/10/05 15:38:53;;;;;;;94.90;91.20;;;14.40;99.90;;;;;;6017447;23;20919;-87
2021/10/05 15:41:25;;;;;;;73.40;70.37;;;14.50;99.90;;;;;;6046785;23;20169;-85
2021/10/05 15:43:54;;;;;;;71.37;68.30;;;14.60;99.90;;;;;;6036194;23;20402;-86
2021/10/05 15:46:23;;;;;;;64.67;62.23;;;14.60;99.90;;;;;;6110828;23;20409;-84
2021/10/05 15:48:52;;;;;;;49.30;47.40;;;14.60;99.90;;;;;;6195734;23;20452;-87
2021/10/05 15:51:25;;;;;;;40.60;38.70;;;14.60;99.90;;;;;;6195858;23;20436;-88
2021/10/05 15:53:52;;;;;;;8.00;7.40;;;14.70;99.90;;;;;;6195875;23;20437;-88
2021/10/05 15:56:33;;;;;;;14.77;13.93;;;13.40;99.90;;;;;;6195607;23;20441;-90
2021/10/05 15:59:13;;;;;;;23.00;21.80;;;12.80;99.90;;;;;;6194283;23;20765;-89
2021/10/05 16:01:52;;;;;;;31.03;29.67;;;12.50;99.90;;;;;;6195440;23;20432;-89
2021/10/05 16:04:46;;;;;;;37.70;36.10;;;12.40;99.90;;;;;;6164969;23;20960;-90
2021/10/05 16:07:32;;;;;;;52.77;50.60;;;12.30;99.90;;;;;;6154833;23;20414;-88
2021/10/05 16:10:24;;;;;;;103.07;99.07;;;12.40;99.90;;;;;;6165551;23;20908;-90
2021/10/05 16:12:57;;;;;;;98.43;93.73;;;12.60;99.90;;;;;;6149600;23;20420;-89
2021/10/05 16:15:29;;;;;;;127.37;122.57;;;12.70;99.90;;;;;;6164534;23;20953;-87
2021/10/05 16:17:56;;;;;;;121.07;116.40;;;12.80;99.90;;;;;;6165892;23;20422;-87
2021/10/05 16:20:27;;;;;;;100.10;96.17;;;12.80;99.90;;;;;;6155956;23;20465;-88
2021/10/05 16:22:53;;;;;;;93.13;89.40;;;13.10;99.90;;;;;;6165108;23;20406;-88
2021/10/05 16:25:20;;;;;;;72.63;69.47;;;13.20;99.90;;;;;;6165817;23;20438;-87
2021/10/05 16:27:47;;;;;;;51.70;49.33;;;13.50;99.90;;;;;;6155591;23;20407;-83
2021/10/05 16:30:24;;;;;;;30.87;29.33;;;13.70;99.90;;;;;;6154292;23;20488;-87
2021/10/05 16:32:53;;;;;;;15.13;13.63;;;13.60;99.90;;;;;;6165896;23;20452;-88
2021/10/05 16:35:23;;;;;;;10.30;9.60;;;13.60;99.90;;;;;;6155672;23;20405;-86
2021/10/05 16:37:53;;;;;;;17.17;15.97;;;13.40;99.90;;;;;;6165376;23;20480;-87
2021/10/05 16:40:20;;;;;;;17.90;16.90;;;13.30;99.90;;;;;;6165624;23;20414;-88
2021/10/05 16:42:48;;;;;;;23.10;21.77;;;13.30;99.90;;;;;;6165028;23;20549;-90
2021/10/05 16:45:19;;;;;;;21.30;20.20;;;13.10;99.90;;;;;;6164759;23;20414;-81
2021/10/05 16:47:46;;;;;;;19.60;18.20;;;13.00;99.90;;;;;;6154903;23;20406;-85
2021/10/05 16:50:13;;;;;;;17.67;16.37;;;12.60;99.90;;;;;;6155476;23;20890;-83
2021/10/05 16:52:40;;;;;;;19.77;18.67;;;12.60;99.90;;;;;;6155455;23;20394;-84
2021/10/05 16:55:11;;;;;;;21.83;20.33;;;12.40;99.90;;;;;;6155777;23;20405;-86